createdAt,value
2018-12-25T00:01:05.600Z,98.30
2018-12-25T00:03:47.343Z,98.60
2018-12-25T00:06:28.783Z,99.00
2018-12-25T00:09:10.797Z,98.90
2018-12-25T00:11:52.919Z,99.30
2018-12-25T00:14:32.920Z,99.80
2018-12-25T00:17:21.850Z,99.90
2018-12-25T00:20:02.170Z,99.30
2018-12-25T00:22:44.331Z,99.50
2018-12-25T00:25:25.932Z,99.50
2018-12-25T00:28:07.336Z,98.90
2018-12-25T00:30:49.553Z,99.40
2018-12-25T00:33:31.416Z,99.10
2018-12-25T00:36:01.507Z,99.30
2018-12-25T00:38:31.211Z,99.20
2018-12-25T00:41:01.172Z,99.50
2018-12-25T00:43:31.139Z,99.20
2018-12-25T00:46:00.930Z,99.20
2018-12-25T00:48:30.884Z,99.30
2018-12-25T00:51:00.616Z,99.50
2018-12-25T00:53:30.319Z,99.50
2018-12-25T00:56:00.287Z,99.90
2018-12-25T00:58:30.256Z,99.80
2018-12-25T01:00:59.975Z,99.90
2018-12-25T01:03:29.706Z,99.70
2018-12-25T01:05:59.799Z,99.60
2018-12-25T01:08:29.496Z,99.30
2018-12-25T01:10:59.517Z,99.90
2018-12-25T01:13:29.218Z,99.90
2018-12-25T01:15:59.255Z,99.80
2018-12-25T01:18:29.248Z,99.70
2018-12-25T01:20:58.960Z,99.00
2018-12-25T01:23:28.927Z,98.70
2018-12-25T01:25:58.995Z,99.30
2018-12-25T01:28:29.736Z,99.30
2018-12-25T01:30:59.431Z,99.50
2018-12-25T01:33:29.516Z,99.60
2018-12-25T01:35:59.244Z,99.60
2018-12-25T01:38:28.958Z,98.70
2018-12-25T01:40:58.668Z,99.20
2018-12-25T01:43:28.441Z,98.90
2018-12-25T01:45:58.162Z,98.90
2018-12-25T01:48:28.228Z,99.00
2018-12-25T01:50:58.275Z,98.90
2018-12-25T01:53:27.972Z,98.80
2018-12-25T01:55:57.720Z,99.10
2018-12-25T01:58:27.441Z,98.80
2018-12-25T02:00:57.828Z,99.40
2018-12-25T02:03:27.619Z,99.60
2018-12-25T02:05:57.356Z,99.30
2018-12-25T02:08:27.061Z,99.40
2018-12-25T02:10:57.156Z,99.60
2018-12-25T02:13:26.859Z,99.20
2018-12-25T02:15:56.632Z,99.60
2018-12-25T02:18:26.698Z,99.30
2018-12-25T02:20:56.423Z,99.20
2018-12-25T02:23:26.153Z,99.20
2018-12-25T02:25:55.862Z,99.40
2018-12-25T02:28:25.952Z,98.80
2018-12-25T02:30:55.655Z,99.00
2018-12-25T02:33:25.371Z,99.90
2018-12-25T02:35:55.092Z,99.80
2018-12-25T02:38:25.174Z,99.40
2018-12-25T02:40:54.935Z,99.00
2018-12-25T02:43:24.669Z,99.00
2018-12-25T02:45:54.439Z,99.10
2018-12-25T02:48:24.172Z,99.30
2018-12-25T02:50:53.866Z,99.30
2018-12-25T02:53:23.578Z,98.90
2018-12-25T02:55:53.305Z,98.50
2018-12-25T02:58:23.305Z,98.60
2018-12-25T03:00:53.308Z,98.70
2018-12-25T03:03:23.992Z,99.10
2018-12-25T03:05:54.051Z,99.20
2018-12-25T03:08:24.450Z,99.00
2018-12-25T03:10:54.148Z,98.70
2018-12-25T03:13:23.885Z,98.40
2018-12-25T03:15:53.583Z,98.90
2018-12-25T03:18:23.600Z,98.80
2018-12-25T03:20:53.320Z,98.50
2018-12-25T03:23:23.343Z,98.40
2018-12-25T03:25:53.028Z,98.20
2018-12-25T03:28:23.072Z,98.80
2018-12-25T03:30:52.781Z,98.70
2018-12-25T03:33:22.519Z,98.70
2018-12-25T03:35:52.239Z,98.80
2018-12-25T03:38:21.939Z,98.70
2018-12-25T03:40:51.631Z,98.70
2018-12-25T03:43:21.343Z,98.60
2018-12-25T03:45:51.346Z,98.40
2018-12-25T03:48:21.061Z,98.40
2018-12-25T03:50:51.039Z,98.30
2018-12-25T03:53:20.918Z,98.50
2018-12-25T03:55:50.627Z,98.20
2018-12-25T03:58:20.344Z,98.50
2018-12-25T04:00:50.051Z,98.60
2018-12-25T04:03:19.758Z,98.90
2018-12-25T04:05:49.559Z,98.70
2018-12-25T04:08:19.400Z,98.60
2018-12-25T04:10:49.123Z,98.80
2018-12-25T04:13:18.885Z,98.80
2018-12-25T04:15:48.907Z,98.90
2018-12-25T04:18:19.241Z,99.10
2018-12-25T04:20:49.317Z,98.80
2018-12-25T04:23:19.355Z,98.90
2018-12-25T04:25:49.363Z,99.20
2018-12-25T04:28:19.094Z,99.50
2018-12-25T04:30:48.875Z,98.50
2018-12-25T04:33:18.863Z,98.50
2018-12-25T04:35:48.564Z,98.70
2018-12-25T04:38:18.264Z,98.80
2018-12-25T04:40:47.994Z,99.00
2018-12-25T04:43:17.711Z,99.00
2018-12-25T04:45:47.510Z,99.20
2018-12-25T04:48:17.223Z,99.20
2018-12-25T04:50:46.930Z,99.40
2018-12-25T04:53:16.635Z,99.20
2018-12-25T04:55:46.375Z,99.40
2018-12-25T04:58:16.106Z,98.70
2018-12-25T05:00:45.894Z,98.70
2018-12-25T05:03:15.928Z,99.10
2018-12-25T05:05:45.651Z,99.10
2018-12-25T05:08:15.356Z,98.90
2018-12-25T05:10:45.087Z,98.90
2018-12-25T05:13:14.791Z,98.60
2018-12-25T05:15:44.688Z,98.30
2018-12-25T05:18:14.788Z,98.00
2018-12-25T05:20:45.168Z,97.90
2018-12-25T05:23:14.875Z,98.20
2018-12-25T05:25:45.574Z,97.70
2018-12-25T05:28:15.277Z,97.90
2018-12-25T05:30:44.967Z,98.50
2018-12-25T05:33:14.681Z,98.40
2018-12-25T05:35:44.411Z,97.80
2018-12-25T05:38:14.759Z,97.90
2018-12-25T05:40:44.536Z,98.00
2018-12-25T05:43:14.347Z,98.10
2018-12-25T05:45:44.031Z,98.00
2018-12-25T05:48:13.798Z,98.20
2018-12-25T05:50:46.871Z,98.20
2018-12-25T05:53:15.008Z,98.20
2018-12-25T05:55:44.711Z,98.20
2018-12-25T05:58:14.443Z,98.10
2018-12-25T06:00:44.247Z,98.50
2018-12-25T06:03:14.003Z,98.20
2018-12-25T06:05:43.703Z,98.20
2018-12-25T06:08:13.402Z,98.00
2018-12-25T06:10:43.142Z,97.60
2018-12-25T06:13:12.994Z,98.00
2018-12-25T06:15:42.704Z,98.70
2018-12-25T06:18:12.430Z,98.30
2018-12-25T06:20:42.278Z,98.00
2018-12-25T06:23:11.991Z,98.10
2018-12-25T06:25:41.808Z,98.30
2018-12-25T06:28:11.835Z,97.60
2018-12-25T06:30:41.523Z,97.20
2018-12-25T06:33:11.271Z,97.60
2018-12-25T06:35:40.970Z,98.10
2018-12-25T06:38:22.781Z,97.60
2018-12-25T06:41:04.723Z,97.90
2018-12-25T06:43:46.211Z,98.20
2018-12-25T06:46:28.196Z,98.00
2018-12-25T06:49:09.515Z,98.20
2018-12-25T06:51:50.819Z,98.00
2018-12-25T06:54:32.259Z,98.10
2018-12-25T06:57:14.295Z,98.80
2018-12-25T06:59:55.911Z,98.50
2018-12-25T07:02:38.076Z,98.70
2018-12-25T07:05:20.067Z,97.90
2018-12-25T07:08:01.404Z,97.70
2018-12-25T07:10:43.207Z,98.20
2018-12-25T07:13:25.478Z,98.10
2018-12-25T07:16:07.692Z,98.40
2018-12-25T07:18:50.095Z,98.40
2018-12-25T07:21:32.000Z,98.20
2018-12-25T07:24:14.027Z,97.50
2018-12-25T07:26:44.082Z,97.90
2018-12-25T07:29:14.068Z,97.80
2018-12-25T07:31:43.985Z,97.90
2018-12-25T07:34:13.842Z,97.70
2018-12-25T07:36:43.738Z,98.20
2018-12-25T07:39:13.866Z,98.00
2018-12-25T07:41:43.613Z,98.10
2018-12-25T07:44:13.853Z,98.50
2018-12-25T07:46:43.744Z,98.20
2018-12-25T07:49:13.766Z,98.00
2018-12-25T07:51:43.543Z,98.40
2018-12-25T07:54:13.518Z,97.90
2018-12-25T07:56:43.273Z,97.80
2018-12-25T07:59:13.276Z,98.00
2018-12-25T08:01:44.324Z,98.60
2018-12-25T08:04:14.614Z,98.10
2018-12-25T08:06:44.505Z,98.30
2018-12-25T08:09:14.546Z,98.10
2018-12-25T08:11:44.769Z,98.20
2018-12-25T08:14:14.656Z,98.50
2018-12-25T08:16:44.611Z,98.50
2018-12-25T08:19:14.735Z,98.70
2018-12-25T08:21:44.617Z,98.20
2018-12-25T08:24:14.421Z,98.30
2018-12-25T08:26:44.518Z,98.40
2018-12-25T08:29:14.359Z,98.60
2018-12-25T08:31:44.488Z,98.70
2018-12-25T08:34:14.299Z,98.50
2018-12-25T08:36:44.334Z,98.60
2018-12-25T08:39:14.694Z,98.50
2018-12-25T08:41:44.475Z,98.60
2018-12-25T08:44:14.569Z,98.30
2018-12-25T08:46:45.186Z,98.20
2018-12-25T08:49:15.263Z,97.90
2018-12-25T08:51:45.134Z,97.70
2018-12-25T08:54:15.422Z,97.70
2018-12-25T08:56:45.306Z,97.30
2018-12-25T08:59:15.165Z,97.40
2018-12-25T09:01:44.952Z,97.10
2018-12-25T09:04:14.994Z,96.90
2018-12-25T09:06:45.241Z,97.00
2018-12-25T09:09:15.056Z,96.30
2018-12-25T09:11:44.907Z,95.70
2018-12-25T09:14:14.991Z,95.10
2018-12-25T09:16:44.883Z,94.90
2018-12-25T09:19:14.800Z,94.50
2018-12-25T09:21:46.424Z,93.90
2018-12-25T09:24:16.235Z,94.10
2018-12-25T09:26:46.181Z,93.80
2018-12-25T09:29:16.675Z,93.70
2018-12-25T09:31:46.515Z,92.70
2018-12-25T09:34:16.512Z,92.70
2018-12-25T09:36:46.303Z,92.70
2018-12-25T09:39:16.206Z,92.80
2018-12-25T09:41:46.125Z,92.50
2018-12-25T09:44:15.921Z,91.80
2018-12-25T09:46:45.903Z,92.00
2018-12-25T09:49:15.742Z,92.40
2018-12-25T09:51:45.712Z,92.50
2018-12-25T09:54:15.608Z,92.40
2018-12-25T09:57:04.606Z,91.70
2018-12-25T09:59:46.307Z,91.80
2018-12-25T10:02:28.466Z,91.10
2018-12-25T10:05:10.357Z,91.10
2018-12-25T10:07:52.307Z,90.90
2018-12-25T10:10:34.006Z,91.00
2018-12-25T10:13:14.289Z,90.80
2018-12-25T10:15:56.150Z,91.00
2018-12-25T10:18:37.531Z,90.50
2018-12-25T10:21:20.572Z,90.20
2018-12-25T10:24:01.859Z,89.80
2018-12-25T10:26:43.979Z,88.70
2018-12-25T10:29:25.931Z,87.30
2018-12-25T10:32:07.235Z,84.80
2018-12-25T10:34:48.823Z,81.90
2018-12-25T10:37:30.176Z,80.40
2018-12-25T10:40:12.043Z,81.00
2018-12-25T10:42:53.880Z,80.70
2018-12-25T10:45:35.227Z,81.50
2018-12-25T10:48:17.135Z,79.80
2018-12-25T10:50:59.229Z,79.40
2018-12-25T10:53:41.059Z,78.00
2018-12-25T10:56:23.179Z,79.00
2018-12-25T10:59:06.304Z,81.00
2018-12-25T11:01:47.972Z,80.10
2018-12-25T11:04:30.189Z,80.20
2018-12-25T11:07:11.495Z,80.10
2018-12-25T11:09:53.424Z,82.20
2018-12-25T11:12:34.835Z,82.80
2018-12-25T11:15:16.031Z,82.40
2018-12-25T11:17:57.622Z,82.20
2018-12-25T11:20:39.836Z,82.20
2018-12-25T11:23:21.973Z,83.10
2018-12-25T11:26:03.307Z,83.00
2018-12-25T11:28:45.185Z,82.70
2018-12-25T11:31:26.495Z,82.60
2018-12-25T11:34:07.899Z,82.90
2018-12-25T11:36:49.904Z,83.40
2018-12-25T11:39:31.672Z,82.70
2018-12-25T11:42:13.881Z,82.50
2018-12-25T11:44:55.694Z,83.20
2018-12-25T11:47:37.905Z,83.10
2018-12-25T11:50:07.826Z,84.00
2018-12-25T11:52:37.617Z,83.60
2018-12-25T11:55:19.931Z,82.80
2018-12-25T11:58:01.760Z,83.30
2018-12-25T12:00:43.723Z,83.40
2018-12-25T12:03:25.718Z,82.70
2018-12-25T12:06:07.912Z,83.50
2018-12-25T12:08:49.837Z,83.20
2018-12-25T12:11:32.037Z,83.00
2018-12-25T12:14:13.435Z,81.80
2018-12-25T12:16:55.596Z,82.60
2018-12-25T12:19:40.256Z,81.80
2018-12-25T12:22:21.999Z,80.90
2018-12-25T12:25:03.212Z,80.50
2018-12-25T12:27:45.257Z,81.90
2018-12-25T12:30:27.283Z,79.70
2018-12-25T12:33:09.068Z,79.70
2018-12-25T12:35:50.639Z,80.10
2018-12-25T12:38:32.065Z,80.90
2018-12-25T12:41:02.006Z,80.70
2018-12-25T12:43:50.956Z,80.80
2018-12-25T12:46:33.008Z,81.00
2018-12-25T12:49:15.075Z,81.20
2018-12-25T12:51:56.346Z,80.80
2018-12-25T12:54:38.879Z,81.10
2018-12-25T12:57:20.973Z,81.20
2018-12-25T13:00:02.775Z,81.50
2018-12-25T13:02:43.989Z,81.40
2018-12-25T13:05:25.994Z,80.90
2018-12-25T13:08:08.383Z,82.10
2018-12-25T13:10:50.511Z,81.00
2018-12-25T13:13:33.030Z,82.10
2018-12-25T13:16:15.072Z,82.60
2018-12-25T13:18:56.913Z,82.20
2018-12-25T13:21:38.897Z,83.50
2018-12-25T13:24:20.753Z,83.80
2018-12-25T13:27:02.783Z,83.70
2018-12-25T13:29:44.987Z,84.30
2018-12-25T13:32:26.167Z,83.70
2018-12-25T13:35:08.310Z,84.50
2018-12-25T13:37:49.671Z,84.60
2018-12-25T13:40:31.763Z,86.00
2018-12-25T13:43:13.968Z,84.50
2018-12-25T13:45:55.172Z,85.70
2018-12-25T13:48:37.231Z,86.20
2018-12-25T13:51:18.832Z,85.20
2018-12-25T13:54:01.012Z,85.00
2018-12-25T13:56:42.791Z,85.40
2018-12-25T13:59:22.792Z,85.60
2018-12-25T14:02:11.708Z,86.20
2018-12-25T14:04:53.128Z,86.50
2018-12-25T14:07:35.087Z,87.80
2018-12-25T14:10:17.208Z,87.70
2018-12-25T14:12:59.295Z,88.10
2018-12-25T14:15:42.023Z,87.70
2018-12-25T14:18:24.179Z,87.10
2018-12-25T14:21:05.796Z,87.30
2018-12-25T14:23:47.667Z,86.60
2018-12-25T14:26:29.160Z,87.60
2018-12-25T14:29:10.397Z,86.50
2018-12-25T14:31:50.415Z,87.00
2018-12-25T14:34:39.594Z,86.40
2018-12-25T14:37:40.440Z,87.60
2018-12-25T14:40:22.396Z,87.60
2018-12-25T14:43:04.229Z,87.80
2018-12-25T14:45:46.408Z,87.60
2018-12-25T14:48:28.787Z,88.00
2018-12-25T14:51:10.806Z,88.50
2018-12-25T14:53:50.772Z,88.40
2018-12-25T14:56:39.963Z,88.70
2018-12-25T14:59:21.732Z,86.40
2018-12-25T15:02:02.936Z,85.90
2018-12-25T15:04:44.808Z,85.20
2018-12-25T15:07:26.240Z,86.70
2018-12-25T15:10:07.807Z,86.80
2018-12-25T15:12:49.464Z,86.40
2018-12-25T15:15:30.816Z,87.00
2018-12-25T15:18:12.150Z,86.90
2018-12-25T15:20:53.812Z,87.40
2018-12-25T15:23:36.047Z,88.40
2018-12-25T15:26:17.755Z,88.60
2018-12-25T15:28:59.407Z,88.20
2018-12-25T15:31:40.895Z,88.80
2018-12-25T15:34:22.477Z,88.70
2018-12-25T15:37:04.307Z,88.60
2018-12-25T15:39:46.219Z,88.20
2018-12-25T15:42:27.680Z,89.50
2018-12-25T15:45:09.047Z,89.40
2018-12-25T15:47:50.331Z,89.30
2018-12-25T15:50:31.543Z,90.00
2018-12-25T15:53:12.955Z,90.30
2018-12-25T15:55:54.415Z,90.40
2018-12-25T15:58:36.637Z,90.70
2018-12-25T16:01:18.338Z,90.70
2018-12-25T16:04:00.756Z,90.60
2018-12-25T16:06:42.693Z,90.40
2018-12-25T16:09:23.848Z,90.20
2018-12-25T16:12:05.907Z,90.30
2018-12-25T16:14:47.244Z,90.20
2018-12-25T16:17:28.739Z,90.10
2018-12-25T16:20:10.549Z,90.70
2018-12-25T16:22:52.568Z,89.60
2018-12-25T16:25:34.771Z,89.80
2018-12-25T16:28:16.783Z,90.10
2018-12-25T16:30:58.902Z,90.30
2018-12-25T16:33:40.763Z,90.10
2018-12-25T16:36:22.679Z,90.00
2018-12-25T16:39:04.811Z,89.80
2018-12-25T16:41:46.111Z,90.20
2018-12-25T16:44:27.951Z,89.80
2018-12-25T16:47:09.928Z,90.20
2018-12-25T16:49:52.015Z,90.30
2018-12-25T16:52:34.497Z,90.30
2018-12-25T16:55:16.380Z,90.50
2018-12-25T16:57:58.367Z,90.30
2018-12-25T17:00:40.275Z,90.20
2018-12-25T17:03:21.975Z,90.00
2018-12-25T17:06:03.483Z,90.10
2018-12-25T17:08:45.311Z,90.40
2018-12-25T17:11:27.191Z,90.50
2018-12-25T17:14:08.727Z,90.30
2018-12-25T17:16:50.393Z,90.60
2018-12-25T17:19:31.759Z,90.70
2018-12-25T17:22:13.923Z,90.70
2018-12-25T17:24:56.145Z,90.30
2018-12-25T17:27:37.675Z,90.30
2018-12-25T17:30:19.765Z,90.60
2018-12-25T17:33:01.316Z,90.10
2018-12-25T17:35:42.720Z,90.80
2018-12-25T17:38:24.479Z,90.70
2018-12-25T17:41:06.527Z,90.70
2018-12-25T17:43:47.947Z,90.50
2018-12-25T17:46:29.985Z,91.00
2018-12-25T17:49:11.785Z,90.40
2018-12-25T17:51:53.404Z,90.80
2018-12-25T17:54:35.620Z,90.60
2018-12-25T17:57:17.709Z,90.10
2018-12-25T17:59:59.423Z,90.00
2018-12-25T18:02:40.679Z,88.70
2018-12-25T18:05:22.800Z,89.40
2018-12-25T18:08:04.240Z,90.00
2018-12-25T18:10:46.022Z,90.10
2018-12-25T18:13:27.996Z,89.60
2018-12-25T18:16:09.420Z,90.60
2018-12-25T18:18:50.891Z,90.10
2018-12-25T18:21:32.980Z,90.40
2018-12-25T18:24:19.163Z,90.60
2018-12-25T18:26:58.543Z,90.60
2018-12-25T18:29:40.320Z,90.10
2018-12-25T18:32:22.452Z,90.90
2018-12-25T18:35:04.612Z,90.60
2018-12-25T18:37:46.405Z,90.30
2018-12-25T18:43:26.897Z,90.40
2018-12-25T18:46:08.778Z,90.80
2018-12-25T18:48:50.889Z,91.40
2018-12-25T18:51:32.123Z,91.10
2018-12-25T18:54:14.380Z,91.40
2018-12-25T18:56:56.215Z,91.30
2018-12-25T18:59:38.267Z,90.90
2018-12-25T19:02:19.674Z,90.90
2018-12-25T19:05:01.627Z,90.90
2018-12-25T19:07:45.433Z,91.40
2018-12-25T19:10:27.422Z,91.40
2018-12-25T19:13:09.319Z,91.50
2018-12-25T19:15:51.252Z,91.70
2018-12-25T19:18:32.481Z,91.70
2018-12-25T19:21:13.917Z,91.90
2018-12-25T19:23:55.995Z,91.90
2018-12-25T19:26:37.868Z,92.20
2018-12-25T19:29:20.024Z,92.40
2018-12-25T19:32:02.147Z,92.60
2018-12-25T19:34:45.499Z,92.70
2018-12-25T19:37:27.360Z,92.50
2018-12-25T19:40:11.277Z,92.80
2018-12-25T19:42:52.450Z,92.90
2018-12-25T19:45:34.395Z,93.10
2018-12-25T19:48:16.251Z,93.30
2018-12-25T19:50:58.197Z,93.40
2018-12-25T19:53:40.171Z,93.90
2018-12-25T19:56:22.316Z,94.20
2018-12-25T19:59:04.260Z,94.80
2018-12-25T20:01:46.103Z,95.10
2018-12-25T20:04:28.148Z,95.00
2018-12-25T20:07:09.514Z,95.10
2018-12-25T20:09:50.943Z,95.60
2018-12-25T20:12:32.808Z,95.80
2018-12-25T20:15:14.813Z,96.10
2018-12-25T20:17:56.421Z,96.00
2018-12-25T20:20:38.670Z,96.10
2018-12-25T20:23:21.069Z,96.30
2018-12-25T20:26:02.315Z,96.70
2018-12-25T20:28:44.027Z,96.70
2018-12-25T20:31:25.687Z,97.00
2018-12-25T20:34:07.671Z,97.40
2018-12-25T20:36:49.415Z,97.20
2018-12-25T20:39:31.471Z,97.40
2018-12-25T20:42:12.754Z,97.50
2018-12-25T20:44:54.032Z,97.70
2018-12-25T20:47:36.063Z,97.90
2018-12-25T20:50:18.036Z,98.20
2018-12-25T20:52:59.727Z,98.30
2018-12-25T20:55:40.992Z,98.30
2018-12-25T20:58:23.142Z,98.10
2018-12-25T21:01:05.219Z,98.30
2018-12-25T21:03:47.264Z,98.40
2018-12-25T21:06:29.372Z,98.50
2018-12-25T21:09:11.516Z,98.80
2018-12-25T21:11:53.079Z,98.90
2018-12-25T21:14:34.943Z,99.10
2018-12-25T21:17:16.555Z,99.20
2018-12-25T21:19:58.412Z,99.20
2018-12-25T21:22:40.800Z,99.00
2018-12-25T21:25:51.015Z,99.40
2018-12-25T21:28:39.961Z,99.40
2018-12-25T21:31:22.144Z,99.60
2018-12-25T21:34:04.055Z,99.60
2018-12-25T21:36:45.367Z,99.70
2018-12-25T21:39:26.772Z,99.60
2018-12-25T21:42:08.911Z,99.50
2018-12-25T21:44:50.978Z,99.80
2018-12-25T21:47:32.440Z,99.80
2018-12-25T21:50:14.604Z,99.70
2018-12-25T21:52:56.635Z,99.60
2018-12-25T21:55:38.345Z,99.80
2018-12-25T21:58:19.721Z,99.90
2018-12-25T22:01:01.168Z,99.90
2018-12-25T22:03:42.399Z,99.90
2018-12-25T22:06:23.802Z,99.90
2018-12-25T22:09:05.070Z,99.80
2018-12-25T22:11:47.519Z,99.90
2018-12-25T22:14:29.424Z,99.90
2018-12-25T22:17:10.740Z,99.90
2018-12-25T22:19:52.787Z,99.90
2018-12-25T22:22:34.868Z,99.90
2018-12-25T22:25:16.694Z,99.90
2018-12-25T22:27:57.979Z,99.90
2018-12-25T22:30:40.080Z,99.90
2018-12-25T22:33:21.408Z,99.90
2018-12-25T22:36:03.122Z,99.90
2018-12-25T22:38:45.085Z,99.90
2018-12-25T22:41:27.143Z,99.90
2018-12-25T22:44:07.053Z,99.90
2018-12-25T22:46:56.157Z,99.90
2018-12-25T22:49:26.685Z,99.90
2018-12-25T22:51:57.871Z,99.90
2018-12-25T22:54:27.793Z,99.90
2018-12-25T22:56:57.898Z,99.90
2018-12-25T22:59:27.875Z,99.90
2018-12-25T23:01:58.115Z,99.90
2018-12-25T23:04:28.417Z,99.90
2018-12-25T23:06:58.482Z,99.90
2018-12-25T23:09:28.302Z,99.90
2018-12-25T23:11:58.267Z,99.90
2018-12-25T23:14:28.206Z,99.90
2018-12-25T23:16:58.053Z,99.90
2018-12-25T23:19:28.147Z,99.90
2018-12-25T23:22:17.868Z,99.90
2018-12-25T23:24:47.952Z,99.90
2018-12-25T23:27:18.136Z,99.90
2018-12-25T23:29:47.994Z,99.90
2018-12-25T23:32:18.009Z,99.90
2018-12-25T23:34:47.960Z,99.90
2018-12-25T23:37:17.889Z,99.90
2018-12-25T23:39:47.957Z,99.90
2018-12-25T23:42:17.849Z,99.90
2018-12-25T23:44:48.072Z,99.90
2018-12-25T23:47:18.479Z,99.90
2018-12-25T23:49:48.292Z,99.90
2018-12-25T23:52:18.262Z,99.90
2018-12-25T23:54:48.207Z,99.90
2018-12-25T23:57:37.403Z,99.90
